Time;durP1;ratioP1;P1;durP2;ratioP2;P2;SDS_P1;SDS_P2;PMS_P1;PMS_P2;Temp;Humidity;BMP_temperature;BMP_pressure;BME280_temperature;BME280_humidity;BME280_pressure;Samples;Min_cycle;Max_cycle;Signal;HPM_P1;HPM_P2
2023/01/04 00:00:17;;;;;;;3.67;3.35;;;;;;;;;;1052235;28;20357;-75
2023/01/04 00:00:48;;;;;;;6.75;2.05;;;;;;;;;;1052166;28;20020;-75
2023/01/04 00:01:20;;;;;;;4.90;2.28;;;;;;;;;;1052351;28;20027;-75
2023/01/04 00:01:50;;;;;;;5.13;3.50;;;;;;;;;;1052329;28;20475;-75
2023/01/04 00:02:21;;;;;;;5.30;4.20;;;;;;;;;;1052262;28;20020;-75
2023/01/04 00:02:51;;;;;;;2.75;2.42;;;;;;;;;;1052227;28;20125;-75
2023/01/04 00:03:22;;;;;;;7.75;3.42;;;;;;;;;;1050401;28;20016;-75
2023/01/04 00:03:52;;;;;;;3.90;3.05;;;;;;;;;;1050200;28;20028;-75
2023/01/04 00:04:23;;;;;;;2.17;1.98;;;;;;;;;;1049885;28;20028;-75
2023/01/04 00:04:53;;;;;;;4.25;2.70;;;;;;;;;;1052210;28;20024;-75
2023/01/04 00:05:24;;;;;;;3.47;1.95;;;;;;;;;;1052702;28;20020;-75
2023/01/04 00:05:56;;;;;;;4.38;2.88;;;;;;;;;;1053660;28;20047;-75
2023/01/04 00:06:27;;;;;;;10.57;3.38;;;;;;;;;;1052536;28;20024;-75
2023/01/04 00:06:57;;;;;;;3.03;2.30;;;;;;;;;;1052233;28;20020;-75
2023/01/04 00:07:28;;;;;;;7.60;2.83;;;;;;;;;;1052697;28;20103;-75
2023/01/04 00:07:59;;;;;;;5.13;2.67;;;;;;;;;;1052796;28;20054;-75
2023/01/04 00:08:30;;;;;;;7.40;4.68;;;;;;;;;;1053364;28;20023;-75
2023/01/04 00:09:00;;;;;;;3.72;2.95;;;;;;;;;;1052211;28;20028;-75
2023/01/04 00:09:31;;;;;;;10.10;3.80;;;;;;;;;;1052568;28;20041;-75
2023/01/04 00:10:01;;;;;;;6.90;3.58;;;;;;;;;;1052980;28;20019;-75
2023/01/04 00:10:32;;;;;;;7.10;3.33;;;;;;;;;;1052302;28;20182;-75
2023/01/04 00:11:07;;;;;;;4.05;2.55;;;;;;;;;;1053103;28;20665;-75
2023/01/04 00:11:38;;;;;;;6.75;3.67;;;;;;;;;;1052655;28;20024;-75
2023/01/04 00:12:08;;;;;;;6.47;4.05;;;;;;;;;;1052525;28;20480;-75
2023/01/04 00:12:39;;;;;;;6.35;3.17;;;;;;;;;;1053162;28;20046;-75
2023/01/04 00:13:09;;;;;;;8.55;4.72;;;;;;;;;;1053200;28;20027;-76
2023/01/04 00:13:40;;;;;;;5.30;4.28;;;;;;;;;;1052428;28;20019;-75
2023/01/04 00:14:16;;;;;;;6.00;4.00;;;;;;;;;;1052259;28;20407;-75
2023/01/04 00:14:46;;;;;;;6.68;3.60;;;;;;;;;;1052535;28;20032;-73
2023/01/04 00:15:17;;;;;;;4.75;2.08;;;;;;;;;;1052579;28;20024;-73
2023/01/04 00:15:47;;;;;;;10.88;3.70;;;;;;;;;;1052687;28;20023;-73
2023/01/04 00:16:19;;;;;;;4.90;3.17;;;;;;;;;;1052482;28;20028;-75
2023/01/04 00:16:50;;;;;;;6.70;3.50;;;;;;;;;;1052571;28;20066;-76
2023/01/04 00:17:21;;;;;;;6.05;3.10;;;;;;;;;;1052627;28;20030;-75
2023/01/04 00:17:51;;;;;;;2.92;2.05;;;;;;;;;;1051531;28;20020;-75
2023/01/04 00:18:22;;;;;;;4.68;3.13;;;;;;;;;;1052518;28;20020;-75
2023/01/04 00:18:53;;;;;;;5.22;3.47;;;;;;;;;;1052578;28;20020;-75
2023/01/04 00:19:23;;;;;;;3.20;2.10;;;;;;;;;;1051473;28;20406;-75
2023/01/04 00:19:54;;;;;;;6.03;3.00;;;;;;;;;;1052520;28;20106;-75
2023/01/04 00:20:24;;;;;;;5.20;2.90;;;;;;;;;;1052552;28;20020;-75
2023/01/04 00:20:55;;;;;;;5.18;3.17;;;;;;;;;;1051030;28;20531;-75
2023/01/04 00:21:27;;;;;;;7.38;3.45;;;;;;;;;;1050292;28;20070;-75
2023/01/04 00:21:58;;;;;;;2.25;1.83;;;;;;;;;;1050413;28;20020;-75
2023/01/04 00:22:31;;;;;;;3.17;2.58;;;;;;;;;;1047350;28;20472;-75
2023/01/04 00:23:02;;;;;;;7.13;3.08;;;;;;;;;;1049176;28;20024;-76
2023/01/04 00:23:32;;;;;;;4.05;3.00;;;;;;;;;;1052379;28;20467;-75
2023/01/04 00:24:03;;;;;;;4.82;3.00;;;;;;;;;;1052273;28;20495;-76
2023/01/04 00:24:33;;;;;;;5.90;3.20;;;;;;;;;;1052599;28;20020;-75
2023/01/04 00:25:04;;;;;;;7.57;3.17;;;;;;;;;;1052089;28;20024;-75
2023/01/04 00:25:37;;;;;;;4.78;3.63;;;;;;;;;;1052584;28;20019;-76
2023/01/04 00:26:11;;;;;;;5.80;3.17;;;;;;;;;;1051996;28;20031;-75
2023/01/04 00:26:42;;;;;;;7.15;3.47;;;;;;;;;;1050294;28;20094;-75
2023/01/04 00:27:13;;;;;;;3.80;2.88;;;;;;;;;;1050223;28;20221;-75
2023/01/04 00:27:43;;;;;;;5.05;3.05;;;;;;;;;;1048124;28;20066;-75
2023/01/04 00:28:15;;;;;;;6.32;3.30;;;;;;;;;;1050422;28;20039;-76
2023/01/04 00:28:45;;;;;;;6.07;4.30;;;;;;;;;;1052239;28;20504;-75
2023/01/04 00:29:16;;;;;;;5.68;4.22;;;;;;;;;;1051123;28;20023;-75
2023/01/04 00:29:46;;;;;;;8.15;3.88;;;;;;;;;;1052443;28;20115;-75
2023/01/04 00:30:17;;;;;;;4.60;2.42;;;;;;;;;;1052491;28;20020;-75
2023/01/04 00:30:48;;;;;;;3.08;1.70;;;;;;;;;;1051445;28;20495;-75
2023/01/04 00:31:18;;;;;;;5.93;3.25;;;;;;;;;;1052069;28;20027;-75
2023/01/04 00:31:49;;;;;;;5.90;3.55;;;;;;;;;;1052288;28;20496;-76
2023/01/04 00:32:19;;;;;;;5.65;2.53;;;;;;;;;;1050796;28;20487;-75
2023/01/04 00:32:50;;;;;;;7.68;3.72;;;;;;;;;;1051620;28;20020;-76
2023/01/04 00:33:20;;;;;;;3.50;1.92;;;;;;;;;;1052610;28;20404;-76
2023/01/04 00:33:55;;;;;;;5.43;3.38;;;;;;;;;;1051500;28;20119;-75
2023/01/04 00:34:25;;;;;;;5.43;4.03;;;;;;;;;;1051413;28;20082;-76
2023/01/04 00:34:56;;;;;;;4.43;2.95;;;;;;;;;;1052347;28;20043;-75
2023/01/04 00:35:26;;;;;;;7.78;3.83;;;;;;;;;;1052498;28;20036;-75
2023/01/04 00:36:01;;;;;;;4.18;2.40;;;;;;;;;;1052697;28;20024;-75
2023/01/04 00:36:32;;;;;;;8.73;4.18;;;;;;;;;;1051603;28;20418;-75
2023/01/04 00:37:02;;;;;;;6.45;4.00;;;;;;;;;;1052402;28;20077;-73
2023/01/04 00:37:33;;;;;;;8.98;5.30;;;;;;;;;;1052124;28;20077;-73
2023/01/04 00:38:03;;;;;;;3.28;2.35;;;;;;;;;;1052209;28;20028;-75
2023/01/04 00:38:34;;;;;;;4.70;2.33;;;;;;;;;;1052242;28;20020;-75
2023/01/04 00:39:08;;;;;;;4.85;3.17;;;;;;;;;;1050252;28;20388;-75
2023/01/04 00:39:39;;;;;;;5.53;3.53;;;;;;;;;;1052171;28;20492;-75
2023/01/04 00:40:10;;;;;;;4.05;2.97;;;;;;;;;;1051763;28;20035;-75
2023/01/04 00:40:40;;;;;;;3.88;2.25;;;;;;;;;;1052282;28;20023;-75
2023/01/04 00:41:11;;;;;;;7.80;3.72;;;;;;;;;;1052484;28;20031;-76
2023/01/04 00:41:46;;;;;;;3.85;2.67;;;;;;;;;;1052585;28;20361;-76
2023/01/04 00:42:17;;;;;;;7.35;3.28;;;;;;;;;;1052370;28;20023;-75
2023/01/04 00:42:47;;;;;;;3.92;2.33;;;;;;;;;;1052440;28;20498;-75
2023/01/04 00:43:18;;;;;;;5.05;2.17;;;;;;;;;;1052603;28;20518;-75
2023/01/04 00:43:48;;;;;;;8.60;2.55;;;;;;;;;;1052138;28;20027;-75
2023/01/04 00:44:22;;;;;;;3.97;3.05;;;;;;;;;;1052025;28;20043;-75
2023/01/04 00:44:52;;;;;;;3.45;2.33;;;;;;;;;;1052102;28;20085;-75
2023/01/04 00:45:23;;;;;;;5.28;3.65;;;;;;;;;;1050106;28;20476;-76
2023/01/04 00:45:53;;;;;;;4.00;2.42;;;;;;;;;;1052213;28;20736;-75
2023/01/04 00:46:24;;;;;;;7.65;3.53;;;;;;;;;;1050112;28;20077;-76
2023/01/04 00:46:54;;;;;;;3.63;3.05;;;;;;;;;;1050182;28;20379;-76
2023/01/04 00:47:25;;;;;;;3.60;2.42;;;;;;;;;;1052672;28;20161;-76
2023/01/04 00:47:56;;;;;;;5.90;3.20;;;;;;;;;;1049553;28;20025;-76
2023/01/04 00:48:27;;;;;;;3.70;2.67;;;;;;;;;;1052209;28;20030;-75
2023/01/04 00:48:58;;;;;;;2.10;1.63;;;;;;;;;;1052089;28;20055;-75
2023/01/04 00:49:29;;;;;;;5.85;3.72;;;;;;;;;;1049159;28;20113;-75
2023/01/04 00:49:59;;;;;;;9.77;3.45;;;;;;;;;;1047973;28;20081;-76
2023/01/04 00:50:30;;;;;;;4.40;2.88;;;;;;;;;;1047825;28;20462;-75
2023/01/04 00:51:00;;;;;;;4.18;2.47;;;;;;;;;;1048150;28;20588;-76
2023/01/04 00:51:32;;;;;;;5.60;3.30;;;;;;;;;;1052290;28;20012;-76
2023/01/04 00:52:03;;;;;;;6.72;3.17;;;;;;;;;;1051439;28;20070;-76
2023/01/04 00:52:33;;;;;;;4.28;1.67;;;;;;;;;;1052431;28;20023;-75
2023/01/04 00:53:04;;;;;;;4.10;2.60;;;;;;;;;;1052359;28;20022;-76
2023/01/04 00:53:34;;;;;;;6.70;4.40;;;;;;;;;;1052510;28;20020;-76
2023/01/04 00:54:06;;;;;;;6.13;3.03;;;;;;;;;;1052368;28;20024;-76
2023/01/04 00:54:36;;;;;;;4.30;2.83;;;;;;;;;;1052515;28;20072;-76
2023/01/04 00:55:07;;;;;;;2.65;2.45;;;;;;;;;;1052092;28;20468;-73
2023/01/04 00:55:38;;;;;;;6.20;2.72;;;;;;;;;;1052464;28;20054;-73
2023/01/04 00:56:08;;;;;;;4.78;3.17;;;;;;;;;;1052312;28;20487;-73
2023/01/04 00:56:39;;;;;;;2.92;2.03;;;;;;;;;;1052520;28;20411;-73
2023/01/04 00:57:09;;;;;;;4.88;1.95;;;;;;;;;;1052334;28;20039;-73
2023/01/04 00:57:40;;;;;;;5.00;2.38;;;;;;;;;;1052423;28;20024;-73
2023/01/04 00:58:11;;;;;;;6.60;3.80;;;;;;;;;;1051921;28;20035;-73
2023/01/04 00:58:41;;;;;;;5.13;2.70;;;;;;;;;;1050140;28;20021;-73
2023/01/04 00:59:12;;;;;;;4.80;3.40;;;;;;;;;;1050127;28;20110;-73
2023/01/04 00:59:43;;;;;;;4.15;2.83;;;;;;;;;;1050261;28;20051;-74
2023/01/04 01:00:14;;;;;;;4.47;3.03;;;;;;;;;;1051837;28;20024;-73
2023/01/04 01:00:45;;;;;;;7.72;3.83;;;;;;;;;;1052426;28;20066;-73
2023/01/04 01:01:15;;;;;;;4.32;3.22;;;;;;;;;;1052464;28;20019;-74
2023/01/04 01:01:46;;;;;;;4.80;2.15;;;;;;;;;;1051459;28;20062;-74
2023/01/04 01:02:17;;;;;;;4.53;2.00;;;;;;;;;;1052330;28;20056;-73
2023/01/04 01:02:47;;;;;;;3.13;2.17;;;;;;;;;;1052053;28;20439;-73
2023/01/04 01:03:18;;;;;;;4.25;3.10;;;;;;;;;;1051061;28;20437;-73
2023/01/04 01:03:51;;;;;;;9.82;4.10;;;;;;;;;;1052182;28;20032;-73
2023/01/04 01:04:22;;;;;;;3.15;2.45;;;;;;;;;;1051992;28;20552;-73
2023/01/04 01:04:53;;;;;;;4.95;2.88;;;;;;;;;;1052320;28;20058;-73
2023/01/04 01:05:23;;;;;;;3.10;2.40;;;;;;;;;;1051958;28;20446;-73
2023/01/04 01:05:54;;;;;;;5.93;3.40;;;;;;;;;;1052247;28;20410;-73
2023/01/04 01:06:25;;;;;;;2.65;2.00;;;;;;;;;;1052074;28;20111;-73
2023/01/04 01:06:56;;;;;;;3.28;2.90;;;;;;;;;;1051089;28;20020;-75
2023/01/04 01:07:26;;;;;;;6.82;2.70;;;;;;;;;;1052350;28;20116;-76
2023/01/04 01:07:57;;;;;;;3.55;2.58;;;;;;;;;;1052361;28;20074;-76
2023/01/04 01:08:27;;;;;;;3.33;1.95;;;;;;;;;;1051952;28;20059;-76
2023/01/04 01:08:59;;;;;;;4.78;2.53;;;;;;;;;;1052015;28;20028;-75
2023/01/04 01:09:29;;;;;;;6.53;5.00;;;;;;;;;;1052066;28;20107;-76
2023/01/04 01:10:00;;;;;;;4.35;2.58;;;;;;;;;;1051876;28;20397;-76
2023/01/04 01:10:33;;;;;;;5.28;3.13;;;;;;;;;;1051362;28;20100;-76
2023/01/04 01:11:08;;;;;;;3.63;2.92;;;;;;;;;;1052188;28;20028;-76
2023/01/04 01:11:39;;;;;;;5.80;2.38;;;;;;;;;;1051211;28;20020;-76
2023/01/04 01:12:09;;;;;;;4.05;2.78;;;;;;;;;;1051912;28;20032;-76
2023/01/04 01:12:40;;;;;;;4.50;2.03;;;;;;;;;;1052331;28;20585;-75
2023/01/04 01:13:10;;;;;;;5.68;3.15;;;;;;;;;;1052666;28;20496;-75
2023/01/04 01:13:41;;;;;;;9.75;3.67;;;;;;;;;;1052223;28;20031;-76
2023/01/04 01:14:15;;;;;;;3.95;3.13;;;;;;;;;;1052062;28;20464;-76
2023/01/04 01:14:45;;;;;;;3.97;2.40;;;;;;;;;;1052311;28;20023;-76
2023/01/04 01:15:16;;;;;;;5.43;2.80;;;;;;;;;;1052342;28;20384;-76
2023/01/04 01:15:47;;;;;;;4.00;2.20;;;;;;;;;;1052498;28;20024;-76
2023/01/04 01:16:19;;;;;;;6.18;2.97;;;;;;;;;;1052293;28;20031;-76
2023/01/04 01:16:50;;;;;;;7.43;2.67;;;;;;;;;;1051905;28;20114;-76
2023/01/04 01:17:20;;;;;;;5.88;2.40;;;;;;;;;;1052077;28;20620;-76
2023/01/04 01:17:51;;;;;;;4.68;3.05;;;;;;;;;;1052129;28;20020;-76
2023/01/04 01:18:21;;;;;;;5.38;2.85;;;;;;;;;;1051969;28;20357;-76
2023/01/04 01:18:52;;;;;;;6.22;3.22;;;;;;;;;;1052395;28;20486;-76
2023/01/04 01:19:23;;;;;;;3.83;2.53;;;;;;;;;;1052333;28;20482;-76
2023/01/04 01:19:54;;;;;;;11.73;3.15;;;;;;;;;;1052334;28;20036;-76
2023/01/04 01:20:25;;;;;;;4.78;2.72;;;;;;;;;;1051953;28;20035;-76
2023/01/04 01:20:55;;;;;;;7.00;3.25;;;;;;;;;;1050977;28;20024;-76
2023/01/04 01:21:27;;;;;;;6.35;2.63;;;;;;;;;;1052087;28;20047;-76
2023/01/04 01:21:57;;;;;;;6.80;3.90;;;;;;;;;;1052081;28;20051;-75
2023/01/04 01:22:28;;;;;;;3.72;2.78;;;;;;;;;;1052300;28;20490;-76
2023/01/04 01:22:59;;;;;;;6.32;3.45;;;;;;;;;;1052318;28;20210;-76
2023/01/04 01:23:29;;;;;;;5.78;2.55;;;;;;;;;;1051947;28;20020;-76
2023/01/04 01:24:00;;;;;;;4.85;2.50;;;;;;;;;;1052145;28;20016;-76
2023/01/04 01:24:30;;;;;;;10.45;3.85;;;;;;;;;;1051804;28;20024;-76
2023/01/04 01:25:01;;;;;;;5.25;2.88;;;;;;;;;;1051687;28;20051;-76
2023/01/04 01:25:34;;;;;;;6.35;3.05;;;;;;;;;;1052483;28;20023;-76
2023/01/04 01:26:06;;;;;;;7.10;3.50;;;;;;;;;;1051927;28;20028;-76
2023/01/04 01:26:37;;;;;;;6.93;4.85;;;;;;;;;;1052366;28;20020;-76
2023/01/04 01:27:07;;;;;;;4.53;2.55;;;;;;;;;;1052712;28;20019;-76
2023/01/04 01:27:38;;;;;;;5.65;3.17;;;;;;;;;;1052139;28;20024;-76
2023/01/04 01:28:08;;;;;;;4.57;2.50;;;;;;;;;;1051920;28;20125;-76
2023/01/04 01:28:39;;;;;;;5.43;3.50;;;;;;;;;;1051807;28;20024;-76
2023/01/04 01:29:10;;;;;;;5.55;2.78;;;;;;;;;;1049978;28;20039;-76
2023/01/04 01:29:40;;;;;;;5.75;3.10;;;;;;;;;;1052009;28;20538;-76
2023/01/04 01:30:11;;;;;;;2.97;2.15;;;;;;;;;;1051942;28;20071;-76
2023/01/04 01:30:42;;;;;;;11.73;2.95;;;;;;;;;;1050193;28;20055;-76
2023/01/04 01:31:14;;;;;;;6.97;3.78;;;;;;;;;;1046686;28;20128;-76
2023/01/04 01:31:44;;;;;;;8.75;4.90;;;;;;;;;;1050252;28;20029;-76
2023/01/04 01:32:15;;;;;;;7.63;3.03;;;;;;;;;;1050095;28;20020;-76
2023/01/04 01:32:45;;;;;;;7.43;4.68;;;;;;;;;;1052036;28;20541;-76
2023/01/04 01:33:16;;;;;;;5.75;3.15;;;;;;;;;;1050691;28;20429;-75
2023/01/04 01:33:48;;;;;;;8.23;2.53;;;;;;;;;;1051937;28;20208;-75
2023/01/04 01:34:19;;;;;;;3.72;2.47;;;;;;;;;;1049911;28;20073;-76
2023/01/04 01:34:49;;;;;;;4.10;2.05;;;;;;;;;;1048465;28;20057;-76
2023/01/04 01:35:20;;;;;;;5.18;2.53;;;;;;;;;;1051947;28;20089;-76
2023/01/04 01:35:51;;;;;;;5.22;2.92;;;;;;;;;;1048923;28;20463;-76
2023/01/04 01:36:22;;;;;;;8.68;3.22;;;;;;;;;;1046548;28;20020;-76
2023/01/04 01:36:53;;;;;;;5.20;3.45;;;;;;;;;;1047778;28;21220;-76
2023/01/04 01:37:23;;;;;;;5.97;3.88;;;;;;;;;;1047975;28;20016;-76
2023/01/04 01:37:54;;;;;;;4.13;2.38;;;;;;;;;;1051964;28;20012;-75
2023/01/04 01:38:25;;;;;;;4.38;3.00;;;;;;;;;;1051890;28;20038;-76
2023/01/04 01:38:55;;;;;;;4.45;2.83;;;;;;;;;;1051801;28;20053;-76
2023/01/04 01:39:26;;;;;;;6.82;3.25;;;;;;;;;;1052284;28;20031;-76
2023/01/04 01:39:56;;;;;;;4.65;3.30;;;;;;;;;;1051974;28;20024;-76
2023/01/04 01:40:27;;;;;;;5.95;3.13;;;;;;;;;;1052133;28;20112;-76
2023/01/04 01:40:58;;;;;;;4.90;2.42;;;;;;;;;;1052322;28;20023;-76
2023/01/04 01:41:30;;;;;;;5.85;3.00;;;;;;;;;;1052234;28;20058;-76
2023/01/04 01:42:00;;;;;;;6.50;3.65;;;;;;;;;;1052317;28;20714;-76
2023/01/04 01:42:31;;;;;;;4.72;2.72;;;;;;;;;;1051820;28;20022;-75
2023/01/04 01:43:01;;;;;;;5.88;3.45;;;;;;;;;;1051926;28;20499;-76
2023/01/04 01:43:47;;;;;;;4.65;2.20;;;;;;;;;;1051944;28;20059;-76
2023/01/04 01:44:36;;;;;;;4.57;2.75;;;;;;;;;;1050905;28;20023;-76
2023/01/04 01:45:20;;;;;;;3.95;2.50;;;;;;;;;;1051922;28;20089;-76
2023/01/04 01:45:52;;;;;;;8.60;4.80;;;;;;;;;;1052000;28;20071;-76
2023/01/04 01:46:23;;;;;;;6.40;3.67;;;;;;;;;;1051775;28;20016;-76
2023/01/04 01:46:53;;;;;;;3.30;2.25;;;;;;;;;;1049971;28;20052;-76
2023/01/04 01:47:27;;;;;;;6.00;2.97;;;;;;;;;;1049984;28;20028;-76
2023/01/04 01:48:00;;;;;;;6.10;3.17;;;;;;;;;;1049752;28;20527;-76
2023/01/04 01:48:31;;;;;;;6.63;3.15;;;;;;;;;;1051826;28;20024;-76
2023/01/04 01:49:03;;;;;;;8.30;3.40;;;;;;;;;;1052267;28;20126;-76
2023/01/04 01:49:36;;;;;;;6.78;2.75;;;;;;;;;;1051535;28;20500;-76
2023/01/04 01:50:17;;;;;;;5.22;3.35;;;;;;;;;;1048587;28;20031;-76
2023/01/04 01:50:49;;;;;;;4.57;3.15;;;;;;;;;;1051881;28;20020;-76
2023/01/04 01:51:20;;;;;;;8.45;3.25;;;;;;;;;;1051711;28;20070;-76
2023/01/04 01:51:52;;;;;;;7.72;4.50;;;;;;;;;;1051829;28;20024;-76
2023/01/04 01:52:25;;;;;;;6.72;2.75;;;;;;;;;;1051723;28;20471;-76
2023/01/04 01:52:58;;;;;;;9.52;3.15;;;;;;;;;;1051341;28;20020;-76
2023/01/04 01:53:31;;;;;;;7.10;3.35;;;;;;;;;;1048319;28;20020;-76
2023/01/04 01:54:07;;;;;;;7.07;3.30;;;;;;;;;;1049956;28;20030;-76
2023/01/04 01:54:44;;;;;;;6.30;3.85;;;;;;;;;;1051361;28;20024;-76
2023/01/04 01:55:15;;;;;;;8.93;3.80;;;;;;;;;;1051456;28;20544;-76
2023/01/04 01:55:48;;;;;;;7.07;3.65;;;;;;;;;;1051828;28;20032;-76
2023/01/04 01:56:19;;;;;;;9.27;3.40;;;;;;;;;;1051585;28;20024;-76
2023/01/04 01:56:50;;;;;;;4.03;2.20;;;;;;;;;;1051475;28;20138;-76
2023/01/04 01:57:22;;;;;;;5.35;2.97;;;;;;;;;;1049750;28;20020;-76
2023/01/04 01:57:53;;;;;;;4.57;2.95;;;;;;;;;;1048163;28;20089;-76
2023/01/04 01:58:26;;;;;;;5.78;2.40;;;;;;;;;;1050541;28;20051;-76
2023/01/04 01:58:57;;;;;;;8.68;3.85;;;;;;;;;;1051338;28;20032;-76
2023/01/04 01:59:28;;;;;;;5.63;3.55;;;;;;;;;;1051178;28;20081;-76
2023/01/04 02:00:02;;;;;;;7.43;3.38;;;;;;;;;;1051949;28;20110;-76
2023/01/04 02:00:33;;;;;;;9.02;3.17;;;;;;;;;;1052130;28;20060;-76
2023/01/04 02:01:04;;;;;;;5.88;3.50;;;;;;;;;;1051628;28;20434;-76
2023/01/04 02:01:35;;;;;;;6.15;4.10;;;;;;;;;;1049306;28;20024;-76
2023/01/04 02:02:05;;;;;;;4.97;3.25;;;;;;;;;;1046988;28;20099;-76
2023/01/04 02:02:36;;;;;;;8.75;3.70;;;;;;;;;;1045045;28;20035;-76
2023/01/04 02:03:16;;;;;;;4.45;2.78;;;;;;;;;;1048818;28;20107;-76
2023/01/04 02:03:47;;;;;;;6.47;3.58;;;;;;;;;;1051131;28;20119;-76
2023/01/04 02:04:17;;;;;;;9.25;4.00;;;;;;;;;;1052144;28;20046;-76
2023/01/04 02:04:50;;;;;;;7.30;3.65;;;;;;;;;;1051884;28;20023;-76
2023/01/04 02:05:20;;;;;;;7.40;4.00;;;;;;;;;;1052025;28;20564;-76
2023/01/04 02:05:52;;;;;;;12.20;4.30;;;;;;;;;;1052059;28;20028;-76
2023/01/04 02:06:30;;;;;;;7.18;3.42;;;;;;;;;;1051172;28;20061;-76
2023/01/04 02:07:01;;;;;;;18.98;4.90;;;;;;;;;;1052534;28;20460;-76
2023/01/04 02:07:32;;;;;;;11.05;4.25;;;;;;;;;;1051565;28;20024;-76
2023/01/04 02:08:03;;;;;;;6.68;4.05;;;;;;;;;;1051810;28;20016;-76
2023/01/04 02:08:36;;;;;;;16.20;5.38;;;;;;;;;;1051759;28;20494;-76
2023/01/04 02:09:07;;;;;;;6.68;3.63;;;;;;;;;;1051345;28;20030;-76
2023/01/04 02:09:38;;;;;;;6.18;3.60;;;;;;;;;;1052270;28;20066;-76
2023/01/04 02:10:08;;;;;;;6.07;3.63;;;;;;;;;;1050713;28;20023;-76
2023/01/04 02:10:39;;;;;;;7.38;4.03;;;;;;;;;;1051847;28;20111;-76
2023/01/04 02:11:10;;;;;;;11.27;4.00;;;;;;;;;;1052646;28;20056;-76
2023/01/04 02:11:40;;;;;;;7.95;4.50;;;;;;;;;;1052613;28;20380;-76
2023/01/04 02:12:11;;;;;;;5.10;2.72;;;;;;;;;;1051133;28;20012;-76
2023/01/04 02:12:44;;;;;;;10.43;3.50;;;;;;;;;;1052002;28;20028;-76
2023/01/04 02:13:16;;;;;;;5.40;3.45;;;;;;;;;;1051888;28;20106;-76
2023/01/04 02:14:36;;;;;;;5.00;3.42;;;;;;;;;;1051645;28;20023;-76
2023/01/04 02:15:07;;;;;;;7.60;3.15;;;;;;;;;;1049643;28;20024;-76
2023/01/04 02:15:49;;;;;;;7.93;3.30;;;;;;;;;;1051647;28;20024;-76
2023/01/04 02:16:22;;;;;;;12.40;6.05;;;;;;;;;;1050772;28;20525;-76
2023/01/04 02:17:05;;;;;;;8.63;3.33;;;;;;;;;;1051806;28;20024;-76
2023/01/04 02:17:36;;;;;;;9.00;3.63;;;;;;;;;;1051484;28;20015;-76
2023/01/04 02:18:11;;;;;;;13.27;4.90;;;;;;;;;;1048575;28;20024;-76
2023/01/04 02:19:00;;;;;;;8.00;4.20;;;;;;;;;;1047698;28;20544;-76
2023/01/04 02:19:31;;;;;;;11.55;4.13;;;;;;;;;;1051325;28;20020;-76
2023/01/04 02:20:20;;;;;;;8.00;4.18;;;;;;;;;;1052731;28;20031;-76
2023/01/04 02:20:58;;;;;;;7.43;3.65;;;;;;;;;;1052071;28;20395;-76
2023/01/04 02:21:39;;;;;;;6.63;3.47;;;;;;;;;;1051526;28;20027;-76
2023/01/04 02:22:22;;;;;;;4.88;3.03;;;;;;;;;;1050182;28;20028;-76
2023/01/04 02:23:10;;;;;;;4.63;3.10;;;;;;;;;;1050418;28;20026;-76
2023/01/04 02:23:47;;;;;;;6.82;3.30;;;;;;;;;;1051585;28;20017;-73
2023/01/04 02:24:18;;;;;;;9.95;4.50;;;;;;;;;;1050030;28;20028;-76
2023/01/04 02:25:00;;;;;;;9.57;3.92;;;;;;;;;;1050586;28;20498;-76
2023/01/04 02:25:31;;;;;;;9.63;5.10;;;;;;;;;;1049560;28;20020;-76
2023/01/04 02:26:20;;;;;;;6.68;3.05;;;;;;;;;;1051280;28;20016;-76
2023/01/04 02:27:20;;;;;;;8.07;4.32;;;;;;;;;;1051080;28;20020;-76
2023/01/04 02:28:05;;;;;;;9.85;3.30;;;;;;;;;;1037041;28;20030;-76
2023/01/04 02:28:55;;;;;;;10.65;4.05;;;;;;;;;;1052172;28;20390;-76
2023/01/04 02:29:41;;;;;;;5.53;3.08;;;;;;;;;;1050966;28;20075;-76
2023/01/04 02:30:12;;;;;;;7.45;4.70;;;;;;;;;;1051487;28;20028;-76
2023/01/04 02:30:42;;;;;;;5.80;3.47;;;;;;;;;;1051994;28;20024;-76
2023/01/04 02:31:28;;;;;;;8.32;4.50;;;;;;;;;;1051835;28;20030;-76
2023/01/04 02:32:06;;;;;;;10.48;3.97;;;;;;;;;;1050148;28;20012;-76
2023/01/04 02:32:50;;;;;;;4.97;2.92;;;;;;;;;;1047765;28;20484;-76
2023/01/04 02:33:32;;;;;;;5.57;3.97;;;;;;;;;;1049245;28;20058;-76
2023/01/04 02:34:08;;;;;;;10.38;4.35;;;;;;;;;;1050497;28;20015;-76
2023/01/04 02:34:58;;;;;;;10.10;4.60;;;;;;;;;;1051542;28;20511;-76
2023/01/04 02:35:36;;;;;;;6.30;3.37;;;;;;;;;;1051447;28;20024;-76
2023/01/04 02:36:06;;;;;;;9.10;4.43;;;;;;;;;;1051773;28;20083;-76
2023/01/04 02:36:45;;;;;;;8.43;3.08;;;;;;;;;;1051406;28;20542;-76
2023/01/04 02:37:17;;;;;;;8.18;3.53;;;;;;;;;;1051580;28;20028;-76
2023/01/04 02:37:57;;;;;;;11.13;4.25;;;;;;;;;;1051301;28;20070;-76
2023/01/04 02:38:27;;;;;;;;;;;;;;;;;;1052015;28;20016;-76
2023/01/04 02:39:14;;;;;;;7.80;3.50;;;;;;;;;;1051615;28;20462;-76
2023/01/04 02:40:03;;;;;;;8.05;4.30;;;;;;;;;;1051534;28;20020;-76
2023/01/04 02:40:48;;;;;;;9.88;3.65;;;;;;;;;;1051458;28;20027;-76
2023/01/04 02:41:24;;;;;;;6.65;3.08;;;;;;;;;;1051159;28;20016;-76
2023/01/04 02:41:55;;;;;;;7.68;3.80;;;;;;;;;;1051403;28;20035;-76
2023/01/04 02:45:04;;;;;;;9.25;3.67;;;;;;;;;;1051455;28;20020;-74
2023/01/04 02:45:41;;;;;;;7.30;3.80;;;;;;;;;;1051723;28;20020;-76
2023/01/04 02:46:17;;;;;;;9.55;4.07;;;;;;;;;;1050851;28;20028;-76
2023/01/04 02:46:54;;;;;;;6.85;3.35;;;;;;;;;;1050737;28;20531;-76
2023/01/04 02:50:50;;;;;;;9.30;3.55;;;;;;;;;;1051620;28;20476;-76
2023/01/04 02:51:24;;;;;;;7.40;3.70;;;;;;;;;;1051529;28;20016;-76
2023/01/04 02:51:55;;;;;;;7.88;3.60;;;;;;;;;;1051259;28;20062;-76
2023/01/04 02:52:26;;;;;;;9.15;4.40;;;;;;;;;;1050638;28;20046;-76
2023/01/04 02:53:01;;;;;;;10.52;4.72;;;;;;;;;;1051435;28;20031;-76
2023/01/04 02:53:36;;;;;;;10.18;4.55;;;;;;;;;;1047512;28;20044;-76
2023/01/04 02:54:09;;;;;;;12.00;5.38;;;;;;;;;;1050963;28;20024;-76
2023/01/04 02:54:40;;;;;;;11.57;5.63;;;;;;;;;;1051452;28;20016;-73
2023/01/04 02:55:11;;;;;;;14.15;5.97;;;;;;;;;;1051235;28;20055;-73
2023/01/04 02:55:48;;;;;;;9.13;4.35;;;;;;;;;;1051560;28;20119;-76
2023/01/04 02:56:37;;;;;;;10.50;4.60;;;;;;;;;;1052189;28;20024;-76
2023/01/04 02:57:15;;;;;;;7.55;4.80;;;;;;;;;;1051985;28;20020;-76
2023/01/04 02:57:56;;;;;;;10.57;4.25;;;;;;;;;;1051786;28;20461;-76
2023/01/04 02:58:33;;;;;;;11.55;5.53;;;;;;;;;;1051856;28;20028;-76
2023/01/04 02:59:10;;;;;;;13.20;5.38;;;;;;;;;;1048964;28;20021;-76
2023/01/04 02:59:40;;;;;;;11.45;4.43;;;;;;;;;;1051025;28;20483;-76
2023/01/04 03:00:13;;;;;;;10.38;5.50;;;;;;;;;;1052248;28;20055;-76
2023/01/04 03:06:23;;;;;;;13.43;6.00;;;;;;;;;;1052247;28;20024;-76
2023/01/04 03:07:10;;;;;;;12.32;5.35;;;;;;;;;;1051644;28;20254;-76
2023/01/04 03:07:46;;;;;;;12.93;6.65;;;;;;;;;;1048173;28;20029;-76
2023/01/04 03:08:26;;;;;;;9.95;5.18;;;;;;;;;;1052042;28;20023;-76
2023/01/04 03:08:56;;;;;;;7.53;4.75;;;;;;;;;;1050767;28;20145;-76
2023/01/04 03:09:29;;;;;;;9.35;5.07;;;;;;;;;;1051345;28;20031;-76
2023/01/04 03:10:23;;;;;;;9.18;5.03;;;;;;;;;;1050662;28;20055;-76
2023/01/04 03:12:30;;;;;;;11.95;5.85;;;;;;;;;;1052394;28;20434;-76
2023/01/04 03:13:10;;;;;;;11.05;4.78;;;;;;;;;;1050486;28;20028;-76
2023/01/04 03:13:42;;;;;;;10.82;5.18;;;;;;;;;;1051814;28;20023;-76
2023/01/04 03:14:20;;;;;;;10.05;5.40;;;;;;;;;;1052265;28;20434;-76
2023/01/04 03:14:59;;;;;;;13.35;5.22;;;;;;;;;;1052344;28;20020;-76
2023/01/04 03:15:32;;;;;;;18.58;7.75;;;;;;;;;;1050315;28;20150;-76
2023/01/04 03:16:06;;;;;;;10.27;5.85;;;;;;;;;;1051628;28;20106;-76
2023/01/04 03:16:37;;;;;;;10.43;5.07;;;;;;;;;;1051652;28;20016;-76
2023/01/04 03:17:11;;;;;;;13.93;6.85;;;;;;;;;;1048783;28;20560;-76
2023/01/04 03:17:47;;;;;;;16.80;7.38;;;;;;;;;;1050652;28;20573;-76
2023/01/04 03:18:28;;;;;;;17.73;7.88;;;;;;;;;;1051484;28;20429;-76
2023/01/04 03:19:03;;;;;;;12.98;6.22;;;;;;;;;;1052278;28;20074;-76
2023/01/04 03:19:50;;;;;;;15.02;6.82;;;;;;;;;;1051090;28;20081;-76
2023/01/04 03:20:22;;;;;;;15.63;8.85;;;;;;;;;;1051962;28;20027;-76
2023/01/04 03:20:54;;;;;;;16.58;7.05;;;;;;;;;;1052176;28;20419;-76
2023/01/04 03:21:26;;;;;;;16.33;7.90;;;;;;;;;;1047478;28;20391;-76
2023/01/04 03:21:57;;;;;;;14.75;7.03;;;;;;;;;;1048561;28;20432;-76
2023/01/04 03:35:46;;;;;;;16.90;7.70;;;;;;;;;;1054316;28;20020;-75
2023/01/04 03:36:16;;;;;;;15.80;7.53;;;;;;;;;;1051235;28;20381;-76
2023/01/04 03:37:07;;;;;;;18.55;8.30;;;;;;;;;;1050696;28;20031;-76
2023/01/04 03:43:08;;;;;;;17.38;7.63;;;;;;;;;;1033425;28;20037;-75
2023/01/04 03:48:32;;;;;;;16.95;7.35;;;;;;;;;;1051367;28;20024;-75
2023/01/04 03:49:11;;;;;;;20.08;8.60;;;;;;;;;;1041998;28;20030;-75
2023/01/04 03:49:42;;;;;;;17.35;6.60;;;;;;;;;;1050588;28;20134;-75
2023/01/04 03:50:16;;;;;;;16.23;7.38;;;;;;;;;;1047095;28;20028;-75
2023/01/04 03:50:50;;;;;;;19.25;9.70;;;;;;;;;;1046951;28;20466;-75
2023/01/04 03:51:22;;;;;;;16.30;8.15;;;;;;;;;;1048117;28;20025;-75
2023/01/04 03:51:54;;;;;;;9.10;5.93;;;;;;;;;;1048154;28;20040;-75
2023/01/04 03:52:26;;;;;;;10.57;6.97;;;;;;;;;;1051887;28;20572;-75
2023/01/04 03:52:58;;;;;;;22.25;7.78;;;;;;;;;;1051658;28;20495;-75
2023/01/04 03:53:29;;;;;;;20.55;8.13;;;;;;;;;;1051173;28;20016;-75
2023/01/04 03:54:03;;;;;;;21.95;9.05;;;;;;;;;;1050361;28;20012;-75
2023/01/04 03:54:38;;;;;;;13.75;7.80;;;;;;;;;;1048772;28;20028;-75
2023/01/04 03:55:09;;;;;;;17.50;8.35;;;;;;;;;;1047809;28;20019;-75